Time;durP1;ratioP1;P1;durP2;ratioP2;P2;SDS_P1;SDS_P2;PMS_P1;PMS_P2;Temp;Humidity;BMP_temperature;BMP_pressure;BME280_temperature;BME280_humidity;BME280_pressure;Samples;Min_cycle;Max_cycle;Signal;HPM_P1;HPM_P2
2023/09/04 00:00:53;;;;;;;11.57;2.95;;;;;;;;;;5073808;28;20215;-44
2023/09/04 00:03:35;;;;;;;4.68;2.42;;;;;;;;;;5074004;28;20214;-44
2023/09/04 00:06:02;;;;;;;4.40;2.92;;;;;;;;;;5074087;28;20253;-45
2023/09/04 00:08:29;;;;;;;5.63;3.38;;;;;;;;;;5074165;28;20678;-45
2023/09/04 00:10:56;;;;;;;4.63;3.05;;;;;;;;;;5073938;28;20207;-45
2023/09/04 00:13:23;;;;;;;5.10;3.35;;;;;;;;;;5073898;28;20207;-45
2023/09/04 00:15:55;;;;;;;6.20;3.00;;;;;;;;;;5074005;28;20231;-45
2023/09/04 00:18:23;;;;;;;5.15;2.92;;;;;;;;;;5074077;28;20210;-45
2023/09/04 00:20:53;;;;;;;4.22;3.00;;;;;;;;;;5073673;28;20695;-44
2023/09/04 00:23:20;;;;;;;6.07;2.90;;;;;;;;;;5073438;28;20223;-45
2023/09/04 00:25:47;;;;;;;4.03;3.03;;;;;;;;;;5073869;28;20183;-45
2023/09/04 00:28:18;;;;;;;5.10;3.35;;;;;;;;;;5073537;28;20586;-44
2023/09/04 00:30:45;;;;;;;4.60;2.55;;;;;;;;;;5072425;28;20707;-45
2023/09/04 00:33:12;;;;;;;4.18;2.78;;;;;;;;;;5072479;28;20206;-45
2023/09/04 00:35:39;;;;;;;3.67;2.63;;;;;;;;;;5073464;28;20203;-45
2023/09/04 00:38:07;;;;;;;9.00;3.25;;;;;;;;;;5073452;28;20207;-44
2023/09/04 00:40:34;;;;;;;4.30;3.00;;;;;;;;;;5073474;28;20234;-45
2023/09/04 00:43:01;;;;;;;4.30;3.40;;;;;;;;;;5073397;28;20253;-45
2023/09/04 00:45:28;;;;;;;6.82;2.92;;;;;;;;;;5073434;28;20733;-44
2023/09/04 00:47:56;;;;;;;3.95;3.03;;;;;;;;;;5055706;28;20218;-45
2023/09/04 00:50:24;;;;;;;3.70;2.78;;;;;;;;;;5055859;28;20207;-45
2023/09/04 00:52:55;;;;;;;6.15;2.92;;;;;;;;;;5073289;28;20200;-44
2023/09/04 00:55:23;;;;;;;5.30;2.70;;;;;;;;;;5073740;28;20212;-46
2023/09/04 00:57:51;;;;;;;4.38;2.78;;;;;;;;;;5073270;28;20211;-45
2023/09/04 01:00:22;;;;;;;7.13;2.95;;;;;;;;;;5073869;28;20313;-45
2023/09/04 01:02:50;;;;;;;5.55;3.03;;;;;;;;;;5056403;28;20664;-45
2023/09/04 01:05:17;;;;;;;5.25;3.35;;;;;;;;;;5072264;28;20282;-45
2023/09/04 01:07:46;;;;;;;4.43;3.03;;;;;;;;;;5073290;28;20258;-47
2023/09/04 01:10:13;;;;;;;5.38;3.10;;;;;;;;;;5073411;28;20264;-45
2023/09/04 01:12:50;;;;;;;3.92;3.20;;;;;;;;;;5073288;28;20207;-45
2023/09/04 01:15:18;;;;;;;5.53;3.53;;;;;;;;;;5072109;28;20288;-44
2023/09/04 01:17:46;;;;;;;4.70;2.78;;;;;;;;;;5055501;28;20211;-44
2023/09/04 01:20:33;;;;;;;4.57;2.78;;;;;;;;;;5055292;28;20630;-45
2023/09/04 01:23:00;;;;;;;5.07;3.35;;;;;;;;;;5071743;28;20211;-44
2023/09/04 01:26:03;;;;;;;4.07;3.00;;;;;;;;;;5073308;28;20227;-45
2023/09/04 01:28:41;;;;;;;5.07;3.33;;;;;;;;;;5072283;28;20199;-45
2023/09/04 01:31:13;;;;;;;6.03;3.10;;;;;;;;;;5073278;28;20207;-44
2023/09/04 01:33:47;;;;;;;4.25;2.70;;;;;;;;;;5073385;28;20203;-45
2023/09/04 01:36:16;;;;;;;3.97;2.85;;;;;;;;;;5073277;28;20184;-47
2023/09/04 01:38:45;;;;;;;5.32;2.92;;;;;;;;;;5057894;28;20199;-44
2023/09/04 01:41:14;;;;;;;3.75;2.90;;;;;;;;;;5076842;28;20297;-46
2023/09/04 01:43:42;;;;;;;7.50;3.00;;;;;;;;;;5059070;28;20226;-45
2023/09/04 01:46:09;;;;;;;6.13;3.05;;;;;;;;;;5075552;28;20206;-46
2023/09/04 01:48:36;;;;;;;3.33;2.38;;;;;;;;;;5076496;28;20207;-44
2023/09/04 01:51:03;;;;;;;3.75;2.80;;;;;;;;;;5076431;28;20211;-44
2023/09/04 01:53:31;;;;;;;4.57;2.70;;;;;;;;;;5075541;28;20203;-44
2023/09/04 01:55:59;;;;;;;4.45;2.55;;;;;;;;;;5076724;28;20207;-45
2023/09/04 01:58:28;;;;;;;4.43;3.03;;;;;;;;;;5075707;28;20214;-45
2023/09/04 02:00:55;;;;;;;6.05;2.78;;;;;;;;;;5075064;28;20260;-45
2023/09/04 02:03:22;;;;;;;4.22;2.97;;;;;;;;;;5076309;28;20644;-45
2023/09/04 02:05:49;;;;;;;3.83;2.40;;;;;;;;;;5076419;28;20206;-44
2023/09/04 02:08:17;;;;;;;2.97;2.13;;;;;;;;;;5075147;28;20218;-46
2023/09/04 02:10:44;;;;;;;5.47;2.63;;;;;;;;;;5076177;28;20373;-45
2023/09/04 02:13:11;;;;;;;3.92;2.53;;;;;;;;;;5076261;28;20207;-45
2023/09/04 02:15:39;;;;;;;4.45;3.28;;;;;;;;;;5075012;28;20208;-47
2023/09/04 02:18:06;;;;;;;4.63;2.88;;;;;;;;;;5076269;28;20204;-45
2023/09/04 02:20:33;;;;;;;4.80;3.17;;;;;;;;;;5076288;28;20219;-44
2023/09/04 02:23:01;;;;;;;7.07;3.58;;;;;;;;;;5074618;28;20244;-46
2023/09/04 02:25:28;;;;;;;5.65;3.63;;;;;;;;;;5075223;28;20207;-49
2023/09/04 02:27:56;;;;;;;7.22;3.78;;;;;;;;;;5075926;28;20203;-47
2023/09/04 02:30:23;;;;;;;8.55;3.80;;;;;;;;;;5075678;28;20290;-44
2023/09/04 02:32:58;;;;;;;5.15;3.65;;;;;;;;;;5074552;28;20558;-44
2023/09/04 02:35:27;;;;;;;5.65;3.63;;;;;;;;;;5076272;28;20207;-44
2023/09/04 02:37:54;;;;;;;5.40;3.72;;;;;;;;;;5074468;28;20676;-45
2023/09/04 02:40:21;;;;;;;5.75;3.70;;;;;;;;;;5076044;28;20206;-45
2023/09/04 02:42:49;;;;;;;9.07;3.40;;;;;;;;;;5074766;28;20293;-46
2023/09/04 02:45:16;;;;;;;5.55;3.60;;;;;;;;;;5075549;28;20227;-44
2023/09/04 02:47:43;;;;;;;4.30;2.75;;;;;;;;;;5076013;28;20200;-45
2023/09/04 02:50:10;;;;;;;5.78;4.00;;;;;;;;;;5073096;28;20203;-46
2023/09/04 02:52:38;;;;;;;4.32;3.10;;;;;;;;;;5075381;28;20214;-45
2023/09/04 02:55:06;;;;;;;4.75;3.42;;;;;;;;;;5075389;28;20210;-44
2023/09/04 02:57:33;;;;;;;4.03;3.17;;;;;;;;;;5088735;28;20265;-45
2023/09/04 03:00:03;;;;;;;5.18;3.63;;;;;;;;;;5092274;28;20209;-45
2023/09/04 03:02:31;;;;;;;5.28;3.50;;;;;;;;;;5094605;28;20215;-44
2023/09/04 03:04:58;;;;;;;4.43;3.22;;;;;;;;;;5095135;28;20285;-46
2023/09/04 03:07:27;;;;;;;5.70;3.90;;;;;;;;;;5094149;28;20210;-45
2023/09/04 03:09:55;;;;;;;7.53;3.45;;;;;;;;;;5094321;28;20205;-45
2023/09/04 03:12:27;;;;;;;7.55;4.00;;;;;;;;;;5094021;28;20218;-45
2023/09/04 03:14:59;;;;;;;4.95;3.67;;;;;;;;;;5095487;28;20256;-45
2023/09/04 03:17:28;;;;;;;5.78;3.70;;;;;;;;;;5094184;28;20240;-46
2023/09/04 03:19:57;;;;;;;3.40;3.10;;;;;;;;;;5093634;28;20537;-45
2023/09/04 03:22:26;;;;;;;7.63;2.95;;;;;;;;;;5094717;28;20222;-45
2023/09/04 03:24:54;;;;;;;7.38;2.70;;;;;;;;;;5093536;28;20284;-45
2023/09/04 03:27:26;;;;;;;3.50;2.58;;;;;;;;;;5093568;28;20195;-44
2023/09/04 03:29:54;;;;;;;6.95;3.35;;;;;;;;;;5093442;28;20198;-48
2023/09/04 03:32:22;;;;;;;5.00;3.25;;;;;;;;;;5093305;28;20256;-45
2023/09/04 03:34:49;;;;;;;5.10;3.70;;;;;;;;;;5094464;28;20205;-46
2023/09/04 03:37:17;;;;;;;6.38;3.53;;;;;;;;;;5094709;28;20203;-46
2023/09/04 03:39:44;;;;;;;6.57;3.05;;;;;;;;;;5094689;28;20241;-45
2023/09/04 03:42:12;;;;;;;4.68;3.30;;;;;;;;;;5094273;28;20223;-45
2023/09/04 03:44:39;;;;;;;4.32;2.85;;;;;;;;;;5094512;28;20229;-45
2023/09/04 03:47:06;;;;;;;4.32;3.20;;;;;;;;;;5093096;28;20209;-46
2023/09/04 03:49:35;;;;;;;4.32;2.22;;;;;;;;;;5083283;28;20200;-48
2023/09/04 03:52:02;;;;;;;5.90;2.50;;;;;;;;;;5082778;28;20207;-50
2023/09/04 03:54:31;;;;;;;7.72;3.78;;;;;;;;;;5079632;28;20198;-47
2023/09/04 03:56:58;;;;;;;6.47;3.08;;;;;;;;;;5090517;28;20226;-47
2023/09/04 03:59:25;;;;;;;5.13;3.65;;;;;;;;;;5093012;28;20221;-47
2023/09/04 04:01:53;;;;;;;5.78;3.30;;;;;;;;;;5082423;28;20554;-46
2023/09/04 04:04:20;;;;;;;6.63;3.88;;;;;;;;;;5072916;28;20306;-44
2023/09/04 04:06:47;;;;;;;6.75;3.47;;;;;;;;;;5073150;28;20264;-46
2023/09/04 04:09:15;;;;;;;5.80;4.07;;;;;;;;;;5085144;28;20230;-45
2023/09/04 04:11:43;;;;;;;7.47;4.03;;;;;;;;;;5085112;28;20223;-46
2023/09/04 04:14:11;;;;;;;8.13;3.83;;;;;;;;;;5072497;28;20285;-44
2023/09/04 04:16:39;;;;;;;5.40;4.10;;;;;;;;;;5071532;28;20231;-45
2023/09/04 04:19:06;;;;;;;7.68;3.97;;;;;;;;;;5071454;28;20302;-45
2023/09/04 04:21:33;;;;;;;8.20;4.43;;;;;;;;;;5073208;28;20231;-45
2023/09/04 04:24:00;;;;;;;10.27;4.35;;;;;;;;;;5071276;28;20246;-45
2023/09/04 04:26:28;;;;;;;8.20;4.28;;;;;;;;;;5071673;28;20265;-45
2023/09/04 04:28:55;;;;;;;5.35;3.35;;;;;;;;;;5072781;28;20319;-46
2023/09/04 04:31:23;;;;;;;4.32;3.58;;;;;;;;;;5072451;28;20590;-46
2023/09/04 04:33:50;;;;;;;5.82;4.18;;;;;;;;;;5071157;28;20234;-45
2023/09/04 04:36:18;;;;;;;7.00;4.07;;;;;;;;;;5071538;28;20245;-47
2023/09/04 04:38:45;;;;;;;6.20;4.43;;;;;;;;;;5072891;28;20288;-46
2023/09/04 04:41:13;;;;;;;5.18;3.90;;;;;;;;;;5071355;28;20224;-45
2023/09/04 04:43:40;;;;;;;5.40;3.90;;;;;;;;;;5071666;28;20219;-44
2023/09/04 04:46:12;;;;;;;5.75;3.38;;;;;;;;;;5072255;28;20238;-47
2023/09/04 04:48:39;;;;;;;6.45;4.32;;;;;;;;;;5070953;28;20219;-45
2023/09/04 04:51:07;;;;;;;5.38;4.20;;;;;;;;;;5070113;28;20227;-45
2023/09/04 04:53:36;;;;;;;7.18;4.28;;;;;;;;;;5072269;28;20209;-46
2023/09/04 04:56:03;;;;;;;6.40;4.30;;;;;;;;;;5073335;28;20687;-45
2023/09/04 04:58:30;;;;;;;9.90;3.97;;;;;;;;;;5072315;28;20199;-45
2023/09/04 05:00:58;;;;;;;7.25;5.00;;;;;;;;;;5072773;28;20206;-45
2023/09/04 05:03:25;;;;;;;7.00;5.05;;;;;;;;;;5071958;28;20712;-45
2023/09/04 05:05:52;;;;;;;6.85;4.63;;;;;;;;;;5072292;28;20195;-45
2023/09/04 05:08:19;;;;;;;7.82;5.13;;;;;;;;;;5071983;28;20207;-46
2023/09/04 05:10:58;;;;;;;8.88;5.32;;;;;;;;;;5072159;28;20207;-45
2023/09/04 05:13:25;;;;;;;7.68;5.45;;;;;;;;;;5075611;28;20191;-45
2023/09/04 05:15:52;;;;;;;6.78;5.10;;;;;;;;;;5076250;28;20207;-45
2023/09/04 05:18:19;;;;;;;8.43;5.25;;;;;;;;;;5076001;28;20210;-45
2023/09/04 05:20:48;;;;;;;7.57;5.22;;;;;;;;;;5076197;28;20308;-47
2023/09/04 05:23:15;;;;;;;8.48;5.40;;;;;;;;;;5076744;28;20703;-44
2023/09/04 05:25:52;;;;;;;6.40;5.20;;;;;;;;;;5076032;28;20206;-45
2023/09/04 05:28:20;;;;;;;9.88;5.13;;;;;;;;;;5077295;28;20191;-45
2023/09/04 05:30:47;;;;;;;7.18;4.80;;;;;;;;;;5076893;28;20582;-46
2023/09/04 05:33:14;;;;;;;9.93;5.07;;;;;;;;;;5077039;28;20210;-44
2023/09/04 05:35:41;;;;;;;6.07;4.93;;;;;;;;;;5076792;28;20682;-44
2023/09/04 05:38:09;;;;;;;8.60;5.15;;;;;;;;;;5076894;28;20204;-47
2023/09/04 05:40:36;;;;;;;9.82;5.53;;;;;;;;;;5077045;28;20264;-45
2023/09/04 05:43:03;;;;;;;5.95;4.65;;;;;;;;;;5076643;28;20223;-46
2023/09/04 05:45:30;;;;;;;7.15;4.88;;;;;;;;;;5077081;28;20206;-44
2023/09/04 05:47:58;;;;;;;8.88;4.90;;;;;;;;;;5076706;28;20761;-45
2023/09/04 05:50:25;;;;;;;8.10;5.05;;;;;;;;;;5076652;28;20264;-45
2023/09/04 05:52:53;;;;;;;7.53;4.72;;;;;;;;;;5076514;28;20230;-45
2023/09/04 05:55:20;;;;;;;10.20;5.40;;;;;;;;;;5076678;28;20257;-45
2023/09/04 05:57:47;;;;;;;8.07;5.38;;;;;;;;;;5076680;28;20196;-45
2023/09/04 06:00:14;;;;;;;6.57;4.32;;;;;;;;;;5076660;28;20203;-45
2023/09/04 06:02:42;;;;;;;7.22;5.20;;;;;;;;;;5076416;28;20228;-45
2023/09/04 06:05:09;;;;;;;6.60;4.85;;;;;;;;;;5075995;28;20198;-49
2023/09/04 06:07:36;;;;;;;6.72;5.00;;;;;;;;;;5076486;28;20203;-46
2023/09/04 06:10:04;;;;;;;6.13;4.63;;;;;;;;;;5076402;28;20214;-45
2023/09/04 06:12:31;;;;;;;8.75;4.88;;;;;;;;;;5076008;28;20203;-46
2023/09/04 06:14:58;;;;;;;10.13;4.80;;;;;;;;;;5076320;28;20222;-45
2023/09/04 06:17:25;;;;;;;7.15;5.35;;;;;;;;;;5076067;28;20195;-48
2023/09/04 06:19:53;;;;;;;7.00;4.68;;;;;;;;;;5076048;28;20200;-45
2023/09/04 06:22:19;;;;;;;7.25;5.20;;;;;;;;;;5076066;28;20224;-47
2023/09/04 06:24:48;;;;;;;7.22;4.72;;;;;;;;;;5075865;28;20234;-47
2023/09/04 06:27:15;;;;;;;11.00;4.95;;;;;;;;;;5075983;28;20199;-47
2023/09/04 06:29:42;;;;;;;7.53;4.90;;;;;;;;;;5076128;28;20207;-45
2023/09/04 06:32:10;;;;;;;7.03;5.00;;;;;;;;;;5075753;28;20203;-48
2023/09/04 06:34:38;;;;;;;7.93;4.47;;;;;;;;;;5075641;28;20208;-46
2023/09/04 06:37:05;;;;;;;5.90;4.80;;;;;;;;;;5075124;28;20208;-45
2023/09/04 06:39:32;;;;;;;9.48;4.95;;;;;;;;;;5075472;28;20274;-47
2023/09/04 06:41:59;;;;;;;6.88;4.53;;;;;;;;;;5075476;28;20254;-45
2023/09/04 06:44:32;;;;;;;5.78;4.63;;;;;;;;;;5074586;28;20198;-48
2023/09/04 06:46:59;;;;;;;6.28;4.43;;;;;;;;;;5075216;28;20604;-46
2023/09/04 06:49:29;;;;;;;6.50;4.22;;;;;;;;;;5076043;28;20226;-46
2023/09/04 06:51:56;;;;;;;7.00;4.55;;;;;;;;;;5075545;28;20212;-45
2023/09/04 06:54:24;;;;;;;6.65;4.75;;;;;;;;;;5074999;28;20262;-46
2023/09/04 06:56:51;;;;;;;5.15;4.05;;;;;;;;;;5072419;28;20203;-45
2023/09/04 06:59:18;;;;;;;5.72;4.00;;;;;;;;;;5073507;28;20234;-44
2023/09/04 07:01:46;;;;;;;7.78;4.60;;;;;;;;;;5073673;28;20221;-45
2023/09/04 07:04:13;;;;;;;6.78;4.28;;;;;;;;;;5074184;28;20210;-44
2023/09/04 07:06:40;;;;;;;6.13;4.13;;;;;;;;;;5074362;28;20211;-45
2023/09/04 07:09:07;;;;;;;7.72;4.20;;;;;;;;;;5074432;28;20249;-46
2023/09/04 07:11:34;;;;;;;6.35;4.32;;;;;;;;;;5074951;28;20203;-45
2023/09/04 07:14:02;;;;;;;7.22;3.67;;;;;;;;;;5074840;28;20211;-45
2023/09/04 07:16:33;;;;;;;5.45;3.63;;;;;;;;;;5074628;28;20206;-46
2023/09/04 07:19:08;;;;;;;8.23;4.18;;;;;;;;;;5074736;28;20212;-45
2023/09/04 07:21:36;;;;;;;6.78;4.10;;;;;;;;;;5075094;28;20620;-45
2023/09/04 07:24:04;;;;;;;7.20;3.92;;;;;;;;;;5075134;28;20572;-44
2023/09/04 07:26:30;;;;;;;7.63;4.57;;;;;;;;;;5074730;28;20622;-45
2023/09/04 07:28:58;;;;;;;7.68;3.97;;;;;;;;;;5074819;28;20219;-46
2023/09/04 07:31:25;;;;;;;7.53;4.32;;;;;;;;;;5074642;28;20206;-48
2023/09/04 07:33:52;;;;;;;7.47;4.32;;;;;;;;;;5074568;28;20672;-45
2023/09/04 07:36:19;;;;;;;7.35;4.45;;;;;;;;;;5073930;28;20208;-45
2023/09/04 07:38:47;;;;;;;7.20;4.70;;;;;;;;;;5074468;28;20195;-45
2023/09/04 07:41:14;;;;;;;9.50;5.57;;;;;;;;;;5074394;28;20201;-45
2023/09/04 07:43:41;;;;;;;7.05;5.47;;;;;;;;;;5074268;28;20227;-45
2023/09/04 07:46:08;;;;;;;7.22;5.15;;;;;;;;;;5074583;28;20207;-45
2023/09/04 07:48:36;;;;;;;10.30;5.32;;;;;;;;;;5074563;28;20257;-45
2023/09/04 07:51:05;;;;;;;11.70;5.53;;;;;;;;;;5074355;28;20208;-45
2023/09/04 07:53:45;;;;;;;7.40;4.80;;;;;;;;;;5074470;28;20203;-44
2023/09/04 07:56:12;;;;;;;6.20;4.45;;;;;;;;;;5074423;28;20199;-45
2023/09/04 07:58:40;;;;;;;7.20;4.55;;;;;;;;;;5089091;28;20226;-45
2023/09/04 08:01:12;;;;;;;8.35;4.15;;;;;;;;;;5074167;28;20199;-44
2023/09/04 08:03:40;;;;;;;6.80;4.20;;;;;;;;;;5073570;28;20223;-46
2023/09/04 08:06:07;;;;;;;6.45;4.30;;;;;;;;;;5073931;28;20210;-47
2023/09/04 08:08:35;;;;;;;5.28;3.47;;;;;;;;;;5074967;28;20559;-46
2023/09/04 08:11:02;;;;;;;6.38;3.78;;;;;;;;;;5082468;28;20221;-47
2023/09/04 08:13:30;;;;;;;7.47;4.40;;;;;;;;;;5091370;28;20226;-49
2023/09/04 08:15:57;;;;;;;10.00;5.30;;;;;;;;;;5089673;28;20762;-47
2023/09/04 08:18:24;;;;;;;8.88;4.60;;;;;;;;;;5081982;28;20223;-46
2023/09/04 08:20:51;;;;;;;6.80;4.35;;;;;;;;;;5073872;28;20219;-47
2023/09/04 08:23:18;;;;;;;6.60;4.00;;;;;;;;;;5084405;28;20249;-46
2023/09/04 08:25:45;;;;;;;6.97;4.03;;;;;;;;;;5093511;28;20222;-47
2023/09/04 08:28:12;;;;;;;4.78;3.47;;;;;;;;;;5092748;28;20207;-45
2023/09/04 08:30:39;;;;;;;6.68;4.13;;;;;;;;;;5090053;28;20210;-47
2023/09/04 08:33:07;;;;;;;6.75;3.85;;;;;;;;;;5085977;28;20207;-47
2023/09/04 08:35:34;;;;;;;5.20;3.83;;;;;;;;;;5073146;28;20231;-50
2023/09/04 08:38:04;;;;;;;4.20;3.70;;;;;;;;;;5083311;28;20207;-47
2023/09/04 08:40:31;;;;;;;5.63;3.67;;;;;;;;;;5084679;28;20655;-46
2023/09/04 08:42:58;;;;;;;7.82;3.58;;;;;;;;;;5076141;28;20246;-47
2023/09/04 08:45:26;;;;;;;9.25;3.80;;;;;;;;;;5089519;28;20198;-49
2023/09/04 08:47:54;;;;;;;6.65;3.90;;;;;;;;;;5077454;28;20223;-47
2023/09/04 08:50:23;;;;;;;5.10;3.55;;;;;;;;;;5072782;28;20286;-48
2023/09/04 08:52:50;;;;;;;4.95;3.67;;;;;;;;;;5077466;28;20708;-48
2023/09/04 08:55:19;;;;;;;4.13;2.90;;;;;;;;;;5093064;28;20201;-48
2023/09/04 08:57:47;;;;;;;6.03;3.50;;;;;;;;;;5077769;28;20206;-47
2023/09/04 09:00:17;;;;;;;6.65;3.80;;;;;;;;;;5081016;28;20238;-48
2023/09/04 09:02:45;;;;;;;4.60;3.60;;;;;;;;;;5072579;28;20222;-47
2023/09/04 09:05:13;;;;;;;6.25;3.67;;;;;;;;;;5074326;28;20200;-50
2023/09/04 09:07:41;;;;;;;6.10;3.50;;;;;;;;;;5070967;28;20207;-47
2023/09/04 09:10:09;;;;;;;5.28;3.60;;;;;;;;;;5083246;28;20229;-47
2023/09/04 09:12:37;;;;;;;5.38;3.17;;;;;;;;;;5074424;28;20215;-49
2023/09/04 09:15:04;;;;;;;7.68;3.80;;;;;;;;;;5092089;28;20522;-48
2023/09/04 09:17:32;;;;;;;5.40;3.55;;;;;;;;;;5082058;28;20203;-48
2023/09/04 09:19:59;;;;;;;5.38;3.30;;;;;;;;;;5070972;28;20301;-47
2023/09/04 09:22:26;;;;;;;5.93;3.58;;;;;;;;;;5072126;28;20603;-47
2023/09/04 09:25:04;;;;;;;5.03;3.60;;;;;;;;;;5072710;28;20227;-47
2023/09/04 09:27:32;;;;;;;5.20;3.05;;;;;;;;;;5072619;28;20199;-48
2023/09/04 09:30:00;;;;;;;4.07;2.83;;;;;;;;;;5072042;28;20223;-47
2023/09/04 09:32:29;;;;;;;6.32;3.40;;;;;;;;;;5075196;28;20252;-48
2023/09/04 09:34:58;;;;;;;3.67;2.50;;;;;;;;;;5072116;28;20212;-49
2023/09/04 09:37:29;;;;;;;4.68;2.83;;;;;;;;;;5083947;28;20222;-48
2023/09/04 09:39:57;;;;;;;3.85;2.55;;;;;;;;;;5079618;28;20219;-48
2023/09/04 09:42:25;;;;;;;4.10;3.47;;;;;;;;;;5083768;28;20214;-48
2023/09/04 09:44:53;;;;;;;6.63;2.97;;;;;;;;;;5087234;28;20229;-48
2023/09/04 09:47:21;;;;;;;6.57;3.00;;;;;;;;;;5084353;28;20680;-48
2023/09/04 09:49:48;;;;;;;5.53;2.75;;;;;;;;;;5091109;28;20222;-46
2023/09/04 09:52:16;;;;;;;4.05;2.42;;;;;;;;;;5092606;28;20219;-45
2023/09/04 09:54:44;;;;;;;4.00;2.13;;;;;;;;;;5091913;28;20226;-45
2023/09/04 09:57:14;;;;;;;5.78;2.42;;;;;;;;;;5092181;28;20229;-45
2023/09/04 09:59:47;;;;;;;3.55;2.53;;;;;;;;;;5094157;28;20257;-45
2023/09/04 10:02:22;;;;;;;4.25;2.35;;;;;;;;;;5096092;28;20223;-52
2023/09/04 10:04:50;;;;;;;7.18;2.80;;;;;;;;;;5095944;28;20234;-45
2023/09/04 10:07:20;;;;;;;6.75;2.63;;;;;;;;;;5095969;28;20222;-46
2023/09/04 10:09:53;;;;;;;2.47;2.00;;;;;;;;;;5095696;28;20318;-45
2023/09/04 10:12:20;;;;;;;3.53;2.05;;;;;;;;;;5095532;28;20259;-46
2023/09/04 10:14:47;;;;;;;2.20;1.70;;;;;;;;;;5096468;28;20203;-47
2023/09/04 10:17:18;;;;;;;3.55;2.05;;;;;;;;;;5095192;28;20237;-49
2023/09/04 10:19:47;;;;;;;2.88;1.70;;;;;;;;;;5095412;28;20202;-48
2023/09/04 10:22:25;;;;;;;4.47;2.28;;;;;;;;;;5096205;28;20664;-47
2023/09/04 10:25:15;;;;;;;4.07;1.90;;;;;;;;;;5096287;28;20296;-45
2023/09/04 10:27:53;;;;;;;4.07;1.75;;;;;;;;;;5095244;28;20198;-45
2023/09/04 10:30:23;;;;;;;3.78;2.13;;;;;;;;;;5095860;28;20238;-50
2023/09/04 10:32:52;;;;;;;3.38;1.98;;;;;;;;;;5096171;28;20209;-45
2023/09/04 10:35:19;;;;;;;2.80;2.00;;;;;;;;;;5086872;28;20294;-47
2023/09/04 10:37:49;;;;;;;3.38;2.05;;;;;;;;;;5091718;28;20198;-47
2023/09/04 10:40:17;;;;;;;7.72;1.83;;;;;;;;;;5092322;28;20636;-48
2023/09/04 10:42:45;;;;;;;2.92;1.75;;;;;;;;;;5082088;28;20205;-47
2023/09/04 10:45:13;;;;;;;3.30;1.80;;;;;;;;;;5083090;28;20655;-48
2023/09/04 10:47:46;;;;;;;4.00;1.63;;;;;;;;;;5075193;28;20210;-47
2023/09/04 10:50:35;;;;;;;3.58;1.50;;;;;;;;;;5075280;28;20195;-47
2023/09/04 10:53:07;;;;;;;2.53;1.65;;;;;;;;;;5084290;28;20218;-50
2023/09/04 10:55:38;;;;;;;2.63;1.70;;;;;;;;;;5094673;28;20555;-46
2023/09/04 10:58:07;;;;;;;3.58;1.67;;;;;;;;;;5077764;28;20199;-45
2023/09/04 11:00:39;;;;;;;2.17;1.35;;;;;;;;;;5075903;28;20203;-45
2023/09/04 11:03:16;;;;;;;2.83;1.52;;;;;;;;;;5075222;28;20231;-47
2023/09/04 11:06:01;;;;;;;3.67;1.30;;;;;;;;;;5075480;28;20198;-46
2023/09/04 11:08:29;;;;;;;1.83;1.30;;;;;;;;;;5074202;28;20206;-45
2023/09/04 11:11:01;;;;;;;3.10;1.58;;;;;;;;;;5072669;28;20204;-45
2023/09/04 11:13:29;;;;;;;4.30;1.50;;;;;;;;;;5074550;28;20211;-44
2023/09/04 11:15:57;;;;;;;2.65;1.60;;;;;;;;;;5074559;28;20203;-45
2023/09/04 11:18:31;;;;;;;2.55;1.40;;;;;;;;;;5074107;28;20195;-44
2023/09/04 11:21:00;;;;;;;1.98;1.33;;;;;;;;;;5074405;28;20745;-44
2023/09/04 11:23:28;;;;;;;2.10;1.30;;;;;;;;;;5074662;28;20243;-44
2023/09/04 11:25:55;;;;;;;2.10;1.10;;;;;;;;;;5074795;28;20207;-44
2023/09/04 11:28:25;;;;;;;3.20;1.20;;;;;;;;;;5074668;28;20207;-45
2023/09/04 11:30:53;;;;;;;2.78;1.23;;;;;;;;;;5074923;28;20236;-46
2023/09/04 11:33:21;;;;;;;1.88;1.20;;;;;;;;;;5074817;28;20203;-45
2023/09/04 11:36:03;;;;;;;3.17;1.05;;;;;;;;;;5073596;28;20558;-46
2023/09/04 11:38:32;;;;;;;3.97;1.25;;;;;;;;;;5074614;28;20246;-46
2023/09/04 11:41:01;;;;;;;1.55;0.95;;;;;;;;;;5074900;28;20203;-44
2023/09/04 11:43:28;;;;;;;2.08;1.38;;;;;;;;;;5073128;28;20715;-45
2023/09/04 11:45:55;;;;;;;1.45;1.10;;;;;;;;;;5074836;28;20203;-46
2023/09/04 11:48:27;;;;;;;3.05;1.30;;;;;;;;;;5074237;28;20683;-45
2023/09/04 11:50:54;;;;;;;1.42;1.20;;;;;;;;;;5074639;28;20205;-45
2023/09/04 11:53:22;;;;;;;1.73;1.02;;;;;;;;;;5074478;28;20268;-46
2023/09/04 11:55:53;;;;;;;2.30;1.25;;;;;;;;;;5073524;28;20195;-45
2023/09/04 11:58:21;;;;;;;2.22;1.35;;;;;;;;;;5074380;28;20224;-44
2023/09/04 12:00:48;;;;;;;4.18;1.17;;;;;;;;;;5076375;28;20286;-45
2023/09/04 12:03:15;;;;;;;4.20;1.35;;;;;;;;;;5072835;28;20227;-45
2023/09/04 12:05:43;;;;;;;1.55;1.15;;;;;;;;;;5090566;28;20223;-45
2023/09/04 12:08:10;;;;;;;2.33;1.30;;;;;;;;;;5079717;28;20273;-44
2023/09/04 12:10:37;;;;;;;2.78;1.17;;;;;;;;;;5081852;28;20253;-44
2023/09/04 12:13:04;;;;;;;1.90;1.15;;;;;;;;;;5093152;28;20229;-45
2023/09/04 12:15:33;;;;;;;2.92;1.20;;;;;;;;;;5079732;28;20227;-44
2023/09/04 12:18:03;;;;;;;1.92;1.20;;;;;;;;;;5072598;28;20227;-44
2023/09/04 12:20:38;;;;;;;2.13;1.45;;;;;;;;;;5072914;28;20656;-45
2023/09/04 12:23:05;;;;;;;2.15;1.20;;;;;;;;;;5072458;28;20230;-46
2023/09/04 12:25:38;;;;;;;2.35;1.40;;;;;;;;;;5072997;28;20277;-45
2023/09/04 12:28:14;;;;;;;2.47;1.33;;;;;;;;;;5072893;28;20230;-45
2023/09/04 12:30:50;;;;;;;1.35;1.00;;;;;;;;;;5071873;28;20235;-46
2023/09/04 12:33:17;;;;;;;3.67;1.13;;;;;;;;;;5072641;28;20703;-45
2023/09/04 12:35:56;;;;;;;2.08;1.33;;;;;;;;;;5079796;28;20219;-45
2023/09/04 12:38:24;;;;;;;2.25;1.50;;;;;;;;;;5090769;28;20223;-44
2023/09/04 12:40:51;;;;;;;3.20;1.35;;;;;;;;;;5071354;28;20801;-45
2023/09/04 12:43:18;;;;;;;2.65;1.23;;;;;;;;;;5072587;28;20223;-46
2023/09/04 12:45:46;;;;;;;1.90;1.30;;;;;;;;;;5071013;28;20245;-46
2023/09/04 12:48:15;;;;;;;2.10;1.63;;;;;;;;;;5087287;28;20222;-46
2023/09/04 12:50:43;;;;;;;3.60;1.13;;;;;;;;;;5092884;28;20233;-46
2023/09/04 12:53:10;;;;;;;6.32;1.50;;;;;;;;;;5091569;28;20226;-45
2023/09/04 12:55:37;;;;;;;3.30;1.45;;;;;;;;;;5092862;28;20309;-45
2023/09/04 12:58:09;;;;;;;1.75;1.35;;;;;;;;;;5091708;28;20276;-46
2023/09/04 13:00:37;;;;;;;2.70;1.38;;;;;;;;;;5092145;28;20218;-47
2023/09/04 13:03:05;;;;;;;1.88;1.40;;;;;;;;;;5092551;28;20226;-48
2023/09/04 13:05:33;;;;;;;2.33;1.38;;;;;;;;;;5089250;28;20227;-45
2023/09/04 13:11:09;;;;;;;2.28;1.25;;;;;;;;;;4839568;22;20225;-51
2023/09/04 13:13:38;;;;;;;3.20;1.27;;;;;;;;;;5038190;28;20298;-55
2023/09/04 13:16:05;;;;;;;2.42;1.38;;;;;;;;;;5039365;28;20236;-56
2023/09/04 13:18:32;;;;;;;2.65;1.20;;;;;;;;;;5040963;28;20236;-56
2023/09/04 13:21:00;;;;;;;3.70;1.40;;;;;;;;;;5037312;28;20307;-57
2023/09/04 13:23:27;;;;;;;2.85;1.58;;;;;;;;;;5039566;28;20259;-56
2023/09/04 13:25:54;;;;;;;3.22;1.40;;;;;;;;;;5052064;28;20236;-53
2023/09/04 13:28:22;;;;;;;1.92;1.10;;;;;;;;;;5051714;28;20625;-58
2023/09/04 13:30:50;;;;;;;2.22;1.20;;;;;;;;;;5051788;28;20220;-57
2023/09/04 13:33:17;;;;;;;1.20;1.10;;;;;;;;;;5052798;28;20204;-56
2023/09/04 13:35:44;;;;;;;3.60;1.55;;;;;;;;;;5056752;28;20228;-57
2023/09/04 13:38:12;;;;;;;2.53;1.25;;;;;;;;;;5036052;28;20201;-57
2023/09/04 13:40:39;;;;;;;2.47;1.33;;;;;;;;;;5035200;28;20220;-55
2023/09/04 13:43:07;;;;;;;1.42;1.20;;;;;;;;;;5035720;28;20200;-53
2023/09/04 13:45:34;;;;;;;3.28;1.45;;;;;;;;;;5034804;28;20627;-54
2023/09/04 13:48:01;;;;;;;2.33;1.48;;;;;;;;;;5052670;28;20227;-53
2023/09/04 13:50:28;;;;;;;2.58;1.60;;;;;;;;;;5044906;28;20217;-54
2023/09/04 13:52:57;;;;;;;3.00;1.27;;;;;;;;;;5048816;28;20597;-51
2023/09/04 13:55:24;;;;;;;2.33;1.13;;;;;;;;;;5046939;28;20221;-50
2023/09/04 13:57:51;;;;;;;2.17;1.40;;;;;;;;;;5051910;28;20274;-55
2023/09/04 14:00:19;;;;;;;6.00;1.40;;;;;;;;;;5055571;28;20234;-53
2023/09/04 14:02:47;;;;;;;2.75;1.20;;;;;;;;;;5055220;28;20224;-50
2023/09/04 14:05:16;;;;;;;2.47;1.50;;;;;;;;;;5055407;28;20291;-50
2023/09/04 14:07:43;;;;;;;3.33;1.50;;;;;;;;;;5055360;28;20240;-52
2023/09/04 14:10:10;;;;;;;1.60;1.20;;;;;;;;;;5055380;28;20240;-52
2023/09/04 14:12:38;;;;;;;2.22;1.27;;;;;;;;;;5055238;28;20640;-53
2023/09/04 14:15:05;;;;;;;3.20;1.45;;;;;;;;;;5054114;28;20620;-56
2023/09/04 14:17:33;;;;;;;3.08;1.10;;;;;;;;;;5054576;28;20231;-54
2023/09/04 14:20:00;;;;;;;3.22;1.45;;;;;;;;;;5051062;28;20223;-51
2023/09/04 14:22:27;;;;;;;2.38;1.67;;;;;;;;;;5055008;28;20224;-53
2023/09/04 14:24:57;;;;;;;3.55;1.70;;;;;;;;;;5055522;28;20239;-51
2023/09/04 14:27:24;;;;;;;2.22;1.30;;;;;;;;;;5054585;28;20231;-54
2023/09/04 14:29:52;;;;;;;2.78;1.50;;;;;;;;;;5055300;28;20227;-52
2023/09/04 14:32:19;;;;;;;2.42;1.17;;;;;;;;;;5054350;28;20224;-56
2023/09/04 14:34:46;;;;;;;3.97;1.80;;;;;;;;;;5054831;28;20721;-49
2023/09/04 14:37:14;;;;;;;2.38;1.17;;;;;;;;;;5054910;28;20247;-50
2023/09/04 14:39:44;;;;;;;3.60;1.40;;;;;;;;;;5054793;28;20275;-49
2023/09/04 14:42:12;;;;;;;2.80;1.45;;;;;;;;;;5054721;28;20242;-50
2023/09/04 14:44:39;;;;;;;3.13;1.38;;;;;;;;;;5054603;28;20238;-49
2023/09/04 14:47:09;;;;;;;2.88;1.73;;;;;;;;;;5054199;28;20228;-50
2023/09/04 14:49:36;;;;;;;2.58;1.40;;;;;;;;;;5054658;28;20224;-50
2023/09/04 14:52:04;;;;;;;2.15;1.20;;;;;;;;;;5054574;28;20236;-51
2023/09/04 14:54:31;;;;;;;2.47;1.35;;;;;;;;;;5054436;28;20290;-49